createdAt,value
2023-02-25T00:02:05.697Z,1.13
2023-02-25T00:04:32.084Z,1.21
2023-02-25T00:06:58.476Z,1.33
2023-02-25T00:09:24.833Z,1.41
2023-02-25T00:11:51.195Z,1.62
2023-02-25T00:14:17.553Z,1.46
2023-02-25T00:16:44.005Z,1.44
2023-02-25T00:19:10.459Z,1.44
2023-02-25T00:21:36.869Z,2.03
2023-02-25T00:24:15.537Z,2.21
2023-02-25T00:26:42.940Z,1.83
2023-02-25T00:29:09.332Z,1.61
2023-02-25T00:31:35.809Z,1.65
2023-02-25T00:34:02.195Z,1.66
2023-02-25T00:36:28.590Z,1.40
2023-02-25T00:38:54.990Z,1.36
2023-02-25T00:41:21.333Z,1.47
2023-02-25T00:43:47.719Z,1.51
2023-02-25T00:46:14.155Z,1.62
2023-02-25T00:48:40.536Z,1.79
2023-02-25T00:51:06.868Z,2.11
2023-02-25T00:53:33.226Z,1.82
2023-02-25T00:55:59.600Z,2.02
2023-02-25T00:58:25.947Z,1.92
2023-02-25T01:00:52.343Z,1.98
2023-02-25T01:03:18.736Z,2.04
2023-02-25T01:05:45.291Z,2.08
2023-02-25T01:08:11.804Z,2.19
2023-02-25T01:10:38.222Z,2.33
2023-02-25T01:13:04.569Z,2.23
2023-02-25T01:15:30.903Z,2.10
2023-02-25T01:17:57.380Z,2.42
2023-02-25T01:20:23.771Z,2.49
2023-02-25T01:22:50.148Z,2.29
2023-02-25T01:25:16.504Z,2.17
2023-02-25T01:27:42.844Z,2.14
2023-02-25T01:30:09.236Z,2.32
2023-02-25T01:32:35.758Z,1.94
2023-02-25T01:35:02.259Z,2.06
2023-02-25T01:37:28.707Z,2.06
2023-02-25T01:39:55.046Z,2.24
2023-02-25T01:42:21.395Z,2.18
2023-02-25T01:44:47.770Z,2.29
2023-02-25T01:47:14.157Z,2.11
2023-02-25T01:49:40.533Z,2.26
2023-02-25T01:52:06.905Z,2.14
2023-02-25T01:54:33.255Z,2.25
2023-02-25T01:56:59.600Z,2.32
2023-02-25T01:59:25.977Z,2.00
2023-02-25T02:01:52.332Z,2.19
2023-02-25T02:04:18.681Z,2.37
2023-02-25T02:06:45.020Z,2.11
2023-02-25T02:09:11.397Z,2.21
2023-02-25T02:11:37.786Z,2.25
2023-02-25T02:14:04.205Z,2.31
2023-02-25T02:16:30.635Z,2.58
2023-02-25T02:18:56.998Z,2.53
2023-02-25T02:21:23.397Z,2.45
2023-02-25T02:23:49.789Z,2.43
2023-02-25T02:26:16.138Z,2.29
2023-02-25T02:28:42.475Z,2.24
2023-02-25T02:31:08.929Z,2.40
2023-02-25T02:33:35.328Z,2.29
2023-02-25T02:36:01.662Z,2.75
2023-02-25T02:38:28.010Z,2.31
2023-02-25T02:40:54.346Z,2.15
2023-02-25T02:43:20.736Z,2.53
2023-02-25T02:45:47.190Z,2.41
2023-02-25T02:48:13.603Z,2.40
2023-02-25T02:50:40.002Z,2.25
2023-02-25T02:53:06.365Z,2.51
2023-02-25T02:55:32.729Z,2.41
2023-02-25T02:57:59.132Z,2.54
2023-02-25T03:00:25.490Z,2.42
2023-02-25T03:02:51.871Z,2.59
2023-02-25T03:05:18.231Z,2.68
2023-02-25T03:07:44.576Z,2.77
2023-02-25T03:10:10.966Z,2.69
2023-02-25T03:12:37.350Z,2.40
2023-02-25T03:15:03.743Z,2.80
2023-02-25T03:17:30.133Z,2.71
2023-02-25T03:19:56.502Z,2.55
2023-02-25T03:22:22.898Z,2.88
2023-02-25T03:24:49.295Z,2.59
2023-02-25T03:27:15.650Z,2.62
2023-02-25T03:29:41.986Z,2.62
2023-02-25T03:32:08.425Z,2.51
2023-02-25T03:34:34.867Z,2.70
2023-02-25T03:37:01.238Z,2.55
2023-02-25T03:39:27.630Z,2.83
2023-02-25T03:41:53.998Z,2.57
2023-02-25T03:44:20.337Z,2.57
2023-02-25T03:46:46.718Z,2.59
2023-02-25T03:49:13.098Z,2.71
2023-02-25T03:51:39.490Z,2.68
2023-02-25T03:54:05.851Z,2.45
2023-02-25T03:56:32.181Z,2.41
2023-02-25T03:58:58.571Z,2.55
2023-02-25T04:01:24.912Z,2.62
2023-02-25T04:03:51.304Z,2.63
2023-02-25T04:06:17.660Z,2.62
2023-02-25T04:08:44.044Z,2.48
2023-02-25T04:11:10.390Z,2.58
2023-02-25T04:13:36.946Z,2.48
2023-02-25T04:16:03.379Z,2.65
2023-02-25T04:18:29.869Z,2.83
2023-02-25T04:20:56.211Z,2.86
2023-02-25T04:23:22.587Z,2.92
2023-02-25T04:25:48.927Z,2.70
2023-02-25T04:28:15.328Z,2.91
2023-02-25T04:30:41.718Z,2.97
2023-02-25T04:33:08.110Z,2.67
2023-02-25T04:35:34.503Z,2.91
2023-02-25T04:38:00.844Z,2.84
2023-02-25T04:40:27.216Z,2.73
2023-02-25T04:42:53.579Z,2.74
2023-02-25T04:45:19.932Z,2.69
2023-02-25T04:47:46.334Z,2.74
2023-02-25T04:50:12.680Z,2.86
2023-02-25T04:52:39.218Z,2.59
2023-02-25T04:55:05.615Z,2.99
2023-02-25T04:57:31.992Z,2.84
2023-02-25T04:59:58.385Z,2.92
2023-02-25T05:02:24.746Z,3.18
2023-02-25T05:04:51.132Z,2.93
2023-02-25T05:07:17.501Z,3.07
2023-02-25T05:09:43.924Z,2.85
2023-02-25T05:12:10.328Z,3.10
2023-02-25T05:14:36.699Z,3.01
2023-02-25T05:17:03.099Z,2.89
2023-02-25T05:19:29.484Z,2.89
2023-02-25T05:21:55.884Z,3.03
2023-02-25T05:24:22.235Z,4.43
2023-02-25T05:26:48.571Z,3.46
2023-02-25T05:29:14.954Z,3.09
2023-02-25T05:31:41.478Z,2.95
2023-02-25T05:34:07.919Z,2.97
2023-02-25T05:36:34.304Z,2.89
2023-02-25T05:39:00.657Z,3.98
2023-02-25T05:41:27.006Z,3.62
2023-02-25T05:43:53.376Z,3.12
2023-02-25T05:46:19.775Z,3.32
2023-02-25T05:48:46.152Z,3.91
2023-02-25T05:51:12.510Z,7.00
2023-02-25T05:53:38.882Z,8.02
2023-02-25T05:56:05.274Z,3.37
2023-02-25T05:58:31.665Z,2.96
2023-02-25T06:00:58.074Z,2.80
2023-02-25T06:03:24.499Z,2.71
2023-02-25T06:05:50.873Z,2.94
2023-02-25T06:08:17.258Z,2.95
2023-02-25T06:10:43.611Z,3.05
2023-02-25T06:13:09.960Z,3.30
2023-02-25T06:15:36.311Z,3.71
2023-02-25T06:18:02.655Z,3.40
2023-02-25T06:20:29.032Z,3.40
2023-02-25T06:22:55.416Z,3.07
2023-02-25T06:25:21.806Z,2.93
2023-02-25T06:27:48.144Z,3.54
2023-02-25T06:30:14.531Z,3.35
2023-02-25T06:32:40.942Z,3.42
2023-02-25T06:35:07.321Z,3.60
2023-02-25T06:37:33.699Z,3.68
2023-02-25T06:40:00.047Z,3.42
2023-02-25T06:42:26.429Z,3.66
2023-02-25T06:44:52.828Z,3.75
2023-02-25T06:47:19.214Z,3.56
2023-02-25T06:49:45.562Z,3.23
2023-02-25T06:52:11.900Z,3.28
2023-02-25T06:54:38.298Z,3.07
2023-02-25T06:57:04.654Z,3.35
2023-02-25T06:59:30.991Z,3.23
2023-02-25T07:01:57.378Z,3.09
2023-02-25T07:04:23.778Z,3.35
2023-02-25T07:06:50.174Z,3.29
2023-02-25T07:09:16.553Z,2.81
2023-02-25T07:11:42.949Z,3.25
2023-02-25T07:14:09.553Z,3.54
2023-02-25T07:16:35.900Z,3.24
2023-02-25T07:19:02.280Z,3.31
2023-02-25T07:21:28.682Z,3.68
2023-02-25T07:23:55.040Z,3.26
2023-02-25T07:26:21.573Z,3.20
2023-02-25T07:28:48.167Z,3.47
2023-02-25T07:31:14.677Z,3.53
2023-02-25T07:33:41.096Z,3.43
2023-02-25T07:36:07.430Z,3.44
2023-02-25T07:38:33.804Z,3.46
2023-02-25T07:41:00.186Z,3.37
2023-02-25T07:43:26.571Z,3.68
2023-02-25T07:45:52.951Z,3.73
2023-02-25T07:48:19.331Z,3.47
2023-02-25T07:50:45.703Z,3.58
2023-02-25T07:53:12.105Z,3.75
2023-02-25T07:55:38.515Z,3.65
2023-02-25T07:58:07.145Z,4.03
2023-02-25T08:00:33.808Z,3.65
2023-02-25T08:03:00.153Z,3.98
2023-02-25T08:05:26.529Z,3.97
2023-02-25T08:07:52.888Z,3.70
2023-02-25T08:10:19.266Z,4.18
2023-02-25T08:12:45.614Z,4.15
2023-02-25T08:15:11.939Z,4.05
2023-02-25T08:17:38.289Z,3.89
2023-02-25T08:20:04.678Z,4.00
2023-02-25T08:22:31.063Z,4.19
2023-02-25T08:24:57.441Z,4.42
2023-02-25T08:27:23.780Z,4.16
2023-02-25T08:29:50.118Z,4.38
2023-02-25T08:32:16.559Z,4.53
2023-02-25T08:34:42.966Z,5.04
2023-02-25T08:37:09.300Z,5.00
2023-02-25T08:39:35.678Z,4.56
2023-02-25T08:42:02.030Z,4.52
2023-02-25T08:44:28.378Z,4.30
2023-02-25T08:46:54.789Z,4.10
2023-02-25T08:49:21.143Z,4.20
2023-02-25T08:51:47.493Z,4.02
2023-02-25T08:54:13.860Z,3.98
2023-02-25T08:56:40.254Z,3.73
2023-02-25T08:59:06.598Z,4.08
2023-02-25T09:01:32.937Z,3.93
2023-02-25T09:03:59.378Z,4.34
2023-02-25T09:06:25.801Z,3.93
2023-02-25T09:08:52.162Z,4.57
2023-02-25T09:11:18.536Z,4.38
2023-02-25T09:13:44.879Z,4.60
2023-02-25T09:16:11.306Z,4.96
2023-02-25T09:18:37.721Z,4.63
2023-02-25T09:21:04.110Z,4.65
2023-02-25T09:23:30.498Z,4.20
2023-02-25T09:25:56.901Z,3.99
2023-02-25T09:28:24.552Z,4.13
2023-02-25T09:30:51.058Z,4.61
2023-02-25T09:33:17.428Z,4.69
2023-02-25T09:35:43.836Z,5.29
2023-02-25T09:38:10.189Z,5.56
2023-02-25T09:40:36.544Z,5.53
2023-02-25T09:43:02.917Z,5.45
2023-02-25T09:45:29.402Z,5.77
2023-02-25T09:47:55.792Z,5.20
2023-02-25T09:50:25.005Z,5.54
2023-02-25T09:52:51.400Z,5.75
2023-02-25T09:55:17.750Z,6.17
2023-02-25T09:57:44.094Z,5.40
2023-02-25T10:00:10.479Z,5.75
2023-02-25T10:02:36.957Z,5.69
2023-02-25T10:05:03.476Z,5.78
2023-02-25T10:07:29.885Z,5.31
2023-02-25T10:09:56.279Z,5.81
2023-02-25T10:12:22.631Z,5.65
2023-02-25T10:14:48.977Z,5.94
2023-02-25T10:17:15.313Z,6.14
2023-02-25T10:19:42.753Z,5.94
2023-02-25T10:22:09.095Z,5.95
2023-02-25T10:24:35.470Z,6.01
2023-02-25T10:27:01.836Z,6.08
2023-02-25T10:29:28.247Z,6.53
2023-02-25T10:31:54.806Z,5.72
2023-02-25T10:34:21.254Z,5.67
2023-02-25T10:36:47.624Z,5.89
2023-02-25T10:39:13.979Z,5.64
2023-02-25T10:41:40.308Z,6.10
2023-02-25T10:44:06.704Z,7.04
2023-02-25T10:46:33.121Z,6.71
2023-02-25T10:48:59.553Z,6.75
2023-02-25T10:51:26.149Z,6.54
2023-02-25T10:53:52.604Z,6.78
2023-02-25T10:56:19.018Z,6.35
2023-02-25T10:58:45.577Z,6.22
2023-02-25T11:01:11.966Z,5.98
2023-02-25T11:03:38.374Z,5.87
2023-02-25T11:06:04.774Z,5.69
2023-02-25T11:08:31.166Z,5.13
2023-02-25T11:10:57.557Z,5.24
2023-02-25T11:13:23.963Z,5.87
2023-02-25T11:15:50.356Z,5.70
2023-02-25T11:18:16.748Z,5.68
2023-02-25T11:20:43.129Z,5.34
2023-02-25T11:23:09.517Z,5.34
2023-02-25T11:25:35.908Z,5.15
2023-02-25T11:28:02.263Z,5.04
2023-02-25T11:30:28.638Z,5.04
2023-02-25T11:32:55.131Z,5.32
2023-02-25T11:35:21.586Z,5.28
2023-02-25T11:37:47.992Z,5.03
2023-02-25T11:40:14.353Z,5.27
2023-02-25T11:42:40.739Z,5.44
2023-02-25T11:45:07.087Z,5.72
2023-02-25T11:47:33.478Z,6.08
2023-02-25T11:49:59.874Z,5.29
2023-02-25T11:52:26.248Z,4.98
2023-02-25T11:54:52.639Z,4.90
2023-02-25T11:57:19.002Z,4.65
2023-02-25T11:59:45.383Z,4.74
2023-02-25T12:02:11.732Z,4.86
2023-02-25T12:04:38.118Z,4.71
2023-02-25T12:07:04.468Z,4.58
2023-02-25T12:09:30.849Z,4.69
2023-02-25T12:11:57.202Z,4.91
2023-02-25T12:14:23.554Z,4.98
2023-02-25T12:16:49.950Z,5.00
2023-02-25T12:19:16.312Z,4.95
2023-02-25T12:21:42.707Z,4.66
2023-02-25T12:24:09.104Z,4.61
2023-02-25T12:26:35.512Z,7.03
2023-02-25T12:29:01.875Z,5.26
2023-02-25T12:31:28.318Z,5.01
2023-02-25T12:33:54.721Z,5.81
2023-02-25T12:36:21.081Z,5.89
2023-02-25T12:38:47.411Z,5.93
2023-02-25T12:41:13.792Z,5.80
2023-02-25T12:43:40.145Z,5.77
2023-02-25T12:46:06.493Z,5.49
2023-02-25T12:48:32.871Z,4.93
2023-02-25T12:50:59.264Z,4.98
2023-02-25T12:53:25.618Z,4.94
2023-02-25T12:55:51.997Z,5.09
2023-02-25T12:58:18.405Z,5.10
2023-02-25T13:00:44.835Z,5.62
2023-02-25T13:03:11.222Z,5.70
2023-02-25T13:05:37.574Z,6.65
2023-02-25T13:08:03.930Z,5.90
2023-02-25T13:10:30.314Z,5.69
2023-02-25T13:12:56.665Z,5.61
2023-02-25T13:15:23.013Z,5.47
2023-02-25T13:17:49.416Z,5.14
2023-02-25T13:20:15.756Z,5.29
2023-02-25T13:22:42.122Z,5.11
2023-02-25T13:25:08.472Z,4.89
2023-02-25T13:27:34.865Z,4.77
2023-02-25T13:30:01.258Z,4.68
2023-02-25T13:32:27.762Z,4.89
2023-02-25T13:34:54.131Z,5.21
2023-02-25T13:37:20.508Z,5.11
2023-02-25T13:39:46.873Z,4.87
2023-02-25T13:42:13.226Z,9.97
2023-02-25T13:44:39.569Z,5.63
2023-02-25T13:47:05.911Z,5.17
2023-02-25T13:49:32.263Z,5.19
2023-02-25T13:51:58.648Z,4.76
2023-02-25T13:54:25.019Z,4.68
2023-02-25T13:56:51.429Z,4.86
2023-02-25T13:59:17.817Z,4.48
2023-02-25T14:01:44.215Z,4.74
2023-02-25T14:04:10.605Z,4.44
2023-02-25T14:06:36.989Z,4.85
2023-02-25T14:09:03.377Z,4.44
2023-02-25T14:11:29.723Z,4.71
2023-02-25T14:13:56.068Z,4.91
2023-02-25T14:16:22.440Z,4.71
2023-02-25T14:18:48.787Z,4.59
2023-02-25T14:21:15.174Z,4.25
2023-02-25T14:23:41.574Z,5.41
2023-02-25T14:26:07.932Z,6.39
2023-02-25T14:28:34.278Z,6.17
2023-02-25T14:31:00.799Z,5.30
2023-02-25T14:33:27.191Z,5.49
2023-02-25T14:35:53.543Z,5.16
2023-02-25T14:38:19.909Z,5.03
2023-02-25T14:40:46.282Z,4.84
2023-02-25T14:43:12.668Z,5.45
2023-02-25T14:45:39.009Z,5.33
2023-02-25T14:48:05.382Z,4.99
2023-02-25T14:50:31.757Z,4.99
2023-02-25T14:52:58.137Z,4.81
2023-02-25T14:55:24.568Z,4.95
2023-02-25T14:57:51.613Z,4.77
2023-02-25T15:00:18.047Z,5.17
2023-02-25T15:02:44.434Z,4.96
2023-02-25T15:05:10.841Z,5.37
2023-02-25T15:07:37.181Z,5.22
2023-02-25T15:10:03.530Z,5.34
2023-02-25T15:12:29.866Z,5.46
2023-02-25T15:14:56.197Z,5.20
2023-02-25T15:17:22.574Z,5.29
2023-02-25T15:19:48.963Z,4.71
2023-02-25T15:22:15.352Z,4.88
2023-02-25T15:24:41.713Z,5.04
2023-02-25T15:27:08.048Z,5.15
2023-02-25T15:29:34.432Z,4.71
2023-02-25T15:32:00.894Z,4.19
2023-02-25T15:34:27.299Z,4.21
2023-02-25T15:36:53.626Z,4.05
2023-02-25T15:39:20.003Z,3.67
2023-02-25T15:41:46.353Z,3.70
2023-02-25T15:44:12.735Z,3.62
2023-02-25T15:46:39.169Z,3.33
2023-02-25T15:49:05.582Z,3.19
2023-02-25T15:51:31.974Z,3.08
2023-02-25T15:53:58.316Z,3.33
2023-02-25T15:56:24.645Z,3.29
2023-02-25T15:58:51.025Z,3.66
2023-02-25T16:01:17.479Z,4.02
2023-02-25T16:03:43.885Z,4.10
2023-02-25T16:06:10.254Z,3.96
2023-02-25T16:08:36.613Z,4.15
2023-02-25T16:11:02.996Z,4.05
2023-02-25T16:13:29.340Z,3.59
2023-02-25T16:15:55.788Z,3.12
2023-02-25T16:18:22.197Z,3.17
2023-02-25T16:20:48.538Z,3.43
2023-02-25T16:23:14.876Z,3.81
2023-02-25T16:25:41.254Z,3.69
2023-02-25T16:28:07.608Z,4.05
2023-02-25T16:30:33.943Z,3.80
2023-02-25T16:33:00.398Z,3.94
2023-02-25T16:35:26.737Z,4.11
2023-02-25T16:37:53.088Z,4.47
2023-02-25T16:40:19.428Z,4.59
2023-02-25T16:42:45.828Z,4.62
2023-02-25T16:45:12.176Z,4.87
2023-02-25T16:47:38.502Z,4.48
2023-02-25T16:50:04.914Z,4.64
2023-02-25T16:52:31.264Z,4.63
2023-02-25T16:54:57.646Z,4.87
2023-02-25T16:57:24.032Z,5.07
2023-02-25T16:59:50.410Z,5.22
2023-02-25T17:02:16.809Z,13.17
2023-02-25T17:04:43.203Z,36.35
2023-02-25T17:07:09.586Z,9.45
2023-02-25T17:09:36.006Z,7.80
2023-02-25T17:12:02.398Z,6.99
2023-02-25T17:14:28.798Z,7.05
2023-02-25T17:16:55.174Z,7.91
2023-02-25T17:19:21.534Z,11.50
2023-02-25T17:21:47.920Z,15.01
2023-02-25T17:24:14.294Z,12.15
2023-02-25T17:26:40.648Z,14.18
2023-02-25T17:29:07.022Z,10.14
2023-02-25T17:31:33.480Z,10.74
2023-02-25T17:33:59.910Z,19.60
2023-02-25T17:36:26.412Z,21.69
2023-02-25T17:38:52.908Z,17.62
2023-02-25T17:41:19.278Z,14.01
2023-02-25T17:43:45.672Z,14.77
2023-02-25T17:46:12.199Z,14.16
2023-02-25T17:48:38.602Z,19.19
2023-02-25T17:51:05.027Z,11.62
2023-02-25T17:53:31.410Z,11.32
2023-02-25T17:55:57.803Z,11.58
2023-02-25T17:58:24.155Z,14.98
2023-02-25T18:00:50.506Z,10.35
2023-02-25T18:03:16.872Z,13.27
2023-02-25T18:05:43.227Z,15.66
2023-02-25T18:08:09.581Z,6.71
2023-02-25T18:10:35.937Z,8.26
2023-02-25T18:13:02.278Z,10.86
2023-02-25T18:15:28.658Z,10.55
2023-02-25T18:17:55.069Z,10.29
2023-02-25T18:20:21.485Z,15.80
2023-02-25T18:22:47.841Z,7.19
2023-02-25T18:25:14.253Z,10.57
2023-02-25T18:27:40.591Z,8.60
2023-02-25T18:30:06.957Z,10.43
2023-02-25T18:32:33.354Z,10.44
2023-02-25T18:34:59.717Z,8.32
2023-02-25T18:37:26.100Z,8.06
2023-02-25T18:39:52.618Z,6.58
2023-02-25T18:42:19.006Z,6.66
2023-02-25T18:44:45.334Z,8.66
2023-02-25T18:47:11.685Z,7.33
2023-02-25T18:49:38.057Z,6.48
2023-02-25T18:52:04.438Z,6.49
2023-02-25T18:54:30.833Z,5.83
2023-02-25T18:56:57.254Z,6.17
2023-02-25T18:59:23.600Z,7.01
2023-02-25T19:01:50.030Z,7.59
2023-02-25T19:04:16.515Z,6.38
2023-02-25T19:06:42.878Z,8.44
2023-02-25T19:09:09.225Z,21.15
2023-02-25T19:11:35.565Z,9.32
2023-02-25T19:14:01.939Z,6.65
2023-02-25T19:16:28.549Z,6.21
2023-02-25T19:18:54.973Z,7.39
2023-02-25T19:21:21.338Z,6.16
2023-02-25T19:23:48.122Z,6.42
2023-02-25T19:26:15.449Z,7.67
2023-02-25T19:28:41.833Z,6.67
2023-02-25T19:31:08.236Z,6.68
2023-02-25T19:33:34.829Z,5.61
2023-02-25T19:36:01.225Z,4.60
2023-02-25T19:38:27.561Z,5.85
2023-02-25T19:40:54.007Z,5.22
2023-02-25T19:43:20.402Z,4.66
2023-02-25T19:45:46.782Z,5.09
2023-02-25T19:48:13.178Z,4.53
2023-02-25T19:50:39.549Z,5.24
2023-02-25T19:53:05.908Z,5.07
2023-02-25T19:55:32.314Z,5.80
2023-02-25T19:57:58.702Z,5.97
2023-02-25T20:00:25.124Z,6.70
2023-02-25T20:02:51.512Z,6.54
2023-02-25T20:05:17.915Z,13.33
2023-02-25T20:07:44.368Z,15.06
2023-02-25T20:10:10.724Z,10.47
2023-02-25T20:12:37.087Z,7.21
2023-02-25T20:15:03.488Z,6.75
2023-02-25T20:17:29.826Z,6.89
2023-02-25T20:19:56.251Z,7.59
2023-02-25T20:22:22.600Z,7.31
2023-02-25T20:24:48.947Z,8.30
2023-02-25T20:27:15.326Z,7.15
2023-02-25T20:29:41.750Z,8.10
2023-02-25T20:32:08.390Z,6.72
2023-02-25T20:34:34.817Z,6.05
2023-02-25T20:37:01.168Z,6.04
2023-02-25T20:39:27.553Z,5.40
2023-02-25T20:41:53.941Z,5.69
2023-02-25T20:44:20.349Z,4.94
2023-02-25T20:46:46.735Z,6.07
2023-02-25T20:49:13.097Z,5.11
2023-02-25T20:51:39.477Z,5.01
2023-02-25T20:54:05.862Z,4.76
2023-02-25T20:56:32.196Z,4.99
2023-02-25T20:58:58.691Z,4.74
2023-02-25T21:01:25.178Z,4.49
2023-02-25T21:03:51.616Z,4.87
2023-02-25T21:06:17.982Z,6.48
2023-02-25T21:08:44.332Z,6.92
2023-02-25T21:11:10.683Z,5.67
2023-02-25T21:13:37.045Z,8.12
2023-02-25T21:16:03.386Z,7.98
2023-02-25T21:18:29.777Z,13.21
2023-02-25T21:20:56.208Z,6.12
2023-02-25T21:23:22.604Z,6.03
2023-02-25T21:25:48.997Z,5.85
2023-02-25T21:28:15.393Z,6.75
2023-02-25T21:30:41.830Z,6.53
2023-02-25T21:33:08.481Z,5.00
2023-02-25T21:35:34.880Z,5.03
2023-02-25T21:38:01.217Z,4.91
2023-02-25T21:40:27.609Z,3.89
2023-02-25T21:42:53.999Z,4.05
2023-02-25T21:45:20.417Z,3.52
2023-02-25T21:47:46.759Z,3.92
2023-02-25T21:50:13.158Z,4.29
2023-02-25T21:52:39.513Z,3.52
2023-02-25T21:55:05.881Z,3.55
2023-02-25T21:57:32.257Z,3.38
2023-02-25T21:59:58.591Z,3.53
2023-02-25T22:02:24.942Z,3.28
2023-02-25T22:04:51.288Z,3.33
2023-02-25T22:07:17.631Z,3.36
2023-02-25T22:09:44.010Z,3.45
2023-02-25T22:12:10.397Z,3.64
2023-02-25T22:14:36.791Z,3.55
2023-02-25T22:17:03.132Z,3.50
2023-02-25T22:19:29.470Z,3.52
2023-02-25T22:21:55.853Z,3.54
2023-02-25T22:24:22.239Z,3.52
2023-02-25T22:26:48.604Z,3.52
2023-02-25T22:29:14.987Z,3.36
2023-02-25T22:31:41.499Z,3.76
2023-02-25T22:34:07.933Z,3.64
2023-02-25T22:36:34.267Z,3.69
2023-02-25T22:39:00.630Z,3.45
2023-02-25T22:41:26.978Z,3.09
2023-02-25T22:43:53.324Z,3.27
2023-02-25T22:46:19.729Z,3.43
2023-02-25T22:48:46.127Z,3.17
2023-02-25T22:51:12.492Z,2.86
2023-02-25T22:53:38.884Z,2.72
2023-02-25T22:56:05.273Z,2.89
2023-02-25T22:58:31.661Z,2.47
2023-02-25T23:00:58.002Z,2.63
2023-02-25T23:03:24.331Z,2.71
2023-02-25T23:05:51.704Z,2.64
2023-02-25T23:08:19.518Z,2.39
2023-02-25T23:10:45.862Z,2.66
2023-02-25T23:13:12.232Z,2.44
2023-02-25T23:15:38.575Z,2.89
2023-02-25T23:18:04.949Z,2.37
2023-02-25T23:20:31.340Z,2.32
2023-02-25T23:22:57.734Z,2.33
2023-02-25T23:25:24.147Z,2.25
2023-02-25T23:27:50.490Z,2.48
2023-02-25T23:30:16.868Z,2.35
2023-02-25T23:32:43.249Z,2.24
2023-02-25T23:35:09.599Z,2.24
2023-02-25T23:37:35.944Z,2.18
2023-02-25T23:40:02.319Z,2.47
2023-02-25T23:42:28.669Z,2.18
2023-02-25T23:44:55.024Z,2.16
2023-02-25T23:47:21.355Z,2.36
2023-02-25T23:49:47.702Z,2.48
2023-02-25T23:52:14.117Z,2.14
2023-02-25T23:54:40.516Z,2.18
2023-02-25T23:57:06.860Z,2.08
2023-02-25T23:59:33.194Z,2.26
